createdAt,value
2017-07-17T00:01:56.389Z,60.32
2017-07-17T00:04:23.854Z,60.64
2017-07-17T00:06:51.394Z,60.84
2017-07-17T00:09:18.869Z,61.03
2017-07-17T00:11:46.406Z,61.10
2017-07-17T00:14:13.970Z,61.36
2017-07-17T00:16:41.787Z,61.33
2017-07-17T00:19:09.294Z,61.56
2017-07-17T00:21:36.845Z,61.74
2017-07-17T00:24:04.329Z,61.46
2017-07-17T00:26:31.797Z,61.18
2017-07-17T00:28:59.322Z,61.50
2017-07-17T00:31:26.785Z,61.32
2017-07-17T00:33:54.283Z,61.22
2017-07-17T00:36:21.793Z,61.33
2017-07-17T00:38:49.285Z,61.41
2017-07-17T00:41:16.834Z,61.62
2017-07-17T00:43:44.370Z,61.38
2017-07-17T00:46:11.871Z,61.22
2017-07-17T00:48:39.358Z,61.30
2017-07-17T00:51:06.817Z,61.26
2017-07-17T00:53:34.336Z,61.17
2017-07-17T00:56:01.857Z,61.06
2017-07-17T00:58:29.415Z,61.01
2017-07-17T01:00:56.989Z,61.39
2017-07-17T01:03:24.542Z,61.06
2017-07-17T01:05:52.030Z,61.67
2017-07-17T01:08:19.499Z,61.30
2017-07-17T01:10:46.983Z,61.81
2017-07-17T01:13:14.450Z,61.82
2017-07-17T01:15:42.283Z,61.96
2017-07-17T01:18:09.745Z,61.88
2017-07-17T01:20:37.229Z,61.70
2017-07-17T01:23:04.693Z,61.74
2017-07-17T01:25:32.286Z,61.91
2017-07-17T01:27:59.981Z,62.02
2017-07-17T01:30:27.514Z,62.09
2017-07-17T01:32:55.010Z,61.84
2017-07-17T01:35:22.477Z,61.91
2017-07-17T01:37:50.053Z,61.57
2017-07-17T01:40:18.049Z,61.62
2017-07-17T01:42:45.562Z,61.72
2017-07-17T01:45:13.031Z,61.37
2017-07-17T01:47:40.514Z,61.21
2017-07-17T01:50:07.998Z,61.14
2017-07-17T01:52:35.634Z,61.04
2017-07-17T01:55:03.158Z,60.94
2017-07-17T01:57:30.761Z,61.00
2017-07-17T01:59:58.233Z,61.02
2017-07-17T02:02:25.842Z,61.01
2017-07-17T02:04:54.070Z,60.85
2017-07-17T02:07:21.569Z,60.91
2017-07-17T02:09:49.058Z,61.18
2017-07-17T02:12:16.585Z,61.19
2017-07-17T02:14:44.070Z,61.52
2017-07-17T02:17:11.986Z,61.77
2017-07-17T02:19:39.469Z,61.98
2017-07-17T02:22:07.025Z,62.14
2017-07-17T02:24:34.545Z,62.38
2017-07-17T02:27:02.014Z,62.35
2017-07-17T02:29:29.850Z,62.35
2017-07-17T02:31:57.402Z,62.35
2017-07-17T02:34:24.901Z,62.22
2017-07-17T02:36:52.382Z,62.24
2017-07-17T02:39:19.897Z,62.29
2017-07-17T02:41:47.402Z,62.87
2017-07-17T02:44:14.909Z,62.72
2017-07-17T02:46:42.382Z,62.71
2017-07-17T02:49:09.854Z,62.67
2017-07-17T02:51:37.345Z,62.80
2017-07-17T02:54:05.170Z,62.78
2017-07-17T02:56:32.698Z,62.73
2017-07-17T02:59:00.200Z,62.48
2017-07-17T03:01:27.686Z,62.80
2017-07-17T03:03:55.173Z,62.82
2017-07-17T03:06:22.694Z,62.78
2017-07-17T03:08:50.163Z,62.79
2017-07-17T03:11:17.724Z,62.70
2017-07-17T03:13:45.264Z,62.76
2017-07-17T03:16:12.765Z,62.72
2017-07-17T03:18:40.238Z,62.61
2017-07-17T03:21:07.721Z,62.63
2017-07-17T03:23:57.806Z,62.43
2017-07-17T03:26:25.366Z,62.68
2017-07-17T03:28:52.851Z,63.20
2017-07-17T03:31:20.381Z,63.17
2017-07-17T03:33:47.842Z,63.38
2017-07-17T03:36:15.331Z,62.95
2017-07-17T03:38:42.855Z,63.05
2017-07-17T03:41:10.410Z,62.93
2017-07-17T03:43:37.970Z,62.83
2017-07-17T03:46:05.536Z,62.90
2017-07-17T03:48:33.081Z,62.97
2017-07-17T03:51:00.545Z,62.87
2017-07-17T03:53:28.343Z,63.24
2017-07-17T03:55:55.836Z,63.08
2017-07-17T03:58:23.426Z,63.00
2017-07-17T04:00:50.981Z,63.49
2017-07-17T04:03:18.542Z,64.17
2017-07-17T04:05:46.009Z,64.00
2017-07-17T04:08:13.514Z,63.89
2017-07-17T04:10:41.013Z,64.03
2017-07-17T04:13:08.573Z,64.28
2017-07-17T04:15:36.173Z,64.05
2017-07-17T04:18:04.032Z,64.02
2017-07-17T04:20:31.567Z,64.25
2017-07-17T04:22:59.109Z,64.12
2017-07-17T04:25:26.597Z,63.79
2017-07-17T04:27:54.073Z,63.64
2017-07-17T04:30:22.110Z,63.68
2017-07-17T04:32:49.658Z,63.53
2017-07-17T04:35:17.149Z,63.36
2017-07-17T04:37:44.635Z,63.36
2017-07-17T04:40:12.233Z,63.49
2017-07-17T04:42:40.804Z,63.52
2017-07-17T04:45:08.370Z,63.64
2017-07-17T04:47:35.939Z,63.78
2017-07-17T04:50:03.532Z,64.00
2017-07-17T04:52:30.999Z,63.83
2017-07-17T04:54:59.105Z,63.74
2017-07-17T04:57:26.605Z,63.68
2017-07-17T04:59:54.203Z,63.77
2017-07-17T05:02:21.736Z,63.75
2017-07-17T05:04:49.282Z,64.51
2017-07-17T05:07:16.785Z,64.43
2017-07-17T05:09:44.303Z,64.66
2017-07-17T05:12:11.795Z,63.91
2017-07-17T05:14:39.286Z,63.88
2017-07-17T05:17:06.837Z,64.02
2017-07-17T05:19:34.303Z,63.69
2017-07-17T05:22:01.873Z,63.55
2017-07-17T05:24:29.351Z,63.13
2017-07-17T05:26:56.846Z,63.29
2017-07-17T05:29:24.326Z,63.27
2017-07-17T05:31:51.797Z,63.35
2017-07-17T05:34:19.289Z,63.16
2017-07-17T05:36:46.806Z,63.29
2017-07-17T05:39:14.295Z,63.16
2017-07-17T05:41:41.782Z,63.10
2017-07-17T05:44:09.421Z,63.09
2017-07-17T05:46:36.894Z,63.46
2017-07-17T05:49:04.389Z,63.64
2017-07-17T05:51:31.853Z,63.48
2017-07-17T05:53:59.407Z,63.49
2017-07-17T05:56:26.966Z,63.43
2017-07-17T05:58:54.565Z,63.33
2017-07-17T06:01:22.050Z,63.20
2017-07-17T06:03:49.513Z,64.04
2017-07-17T06:06:17.160Z,64.51
2017-07-17T06:08:44.665Z,64.15
2017-07-17T06:11:12.153Z,63.06
2017-07-17T06:13:39.617Z,62.41
2017-07-17T06:16:07.105Z,63.10
2017-07-17T06:18:34.641Z,62.48
2017-07-17T06:21:02.138Z,62.44
2017-07-17T06:23:29.705Z,62.28
2017-07-17T06:25:57.197Z,61.16
2017-07-17T06:28:24.658Z,61.50
2017-07-17T06:30:52.146Z,60.75
2017-07-17T06:33:19.628Z,60.28
2017-07-17T06:35:47.114Z,60.59
2017-07-17T06:38:14.590Z,60.12
2017-07-17T06:40:42.102Z,60.45
2017-07-17T06:43:09.562Z,61.14
2017-07-17T06:45:37.118Z,60.10
2017-07-17T06:48:04.682Z,60.24
2017-07-17T06:50:32.231Z,59.72
2017-07-17T06:52:59.731Z,59.34
2017-07-17T06:55:27.211Z,58.79
2017-07-17T06:57:54.715Z,58.96
2017-07-17T07:00:22.555Z,58.62
2017-07-17T07:02:50.049Z,58.91
2017-07-17T07:05:17.519Z,57.67
2017-07-17T07:07:45.071Z,57.10
2017-07-17T07:10:12.610Z,58.10
2017-07-17T07:12:40.162Z,56.96
2017-07-17T07:15:07.726Z,56.04
2017-07-17T07:17:35.279Z,57.05
2017-07-17T07:20:03.228Z,56.88
2017-07-17T07:22:30.754Z,55.69
2017-07-17T07:24:58.230Z,55.57
2017-07-17T07:27:25.860Z,54.64
2017-07-17T07:29:53.325Z,54.59
2017-07-17T07:32:20.795Z,54.24
2017-07-17T07:34:48.280Z,53.49
2017-07-17T07:37:15.751Z,54.33
2017-07-17T07:39:43.315Z,53.44
2017-07-17T07:42:10.789Z,52.89
2017-07-17T07:44:38.277Z,52.03
2017-07-17T07:47:05.784Z,51.63
2017-07-17T07:49:33.341Z,50.97
2017-07-17T07:52:00.885Z,51.75
2017-07-17T07:54:28.369Z,50.60
2017-07-17T07:56:55.838Z,49.55
2017-07-17T07:59:23.366Z,49.95
2017-07-17T08:01:50.838Z,49.50
2017-07-17T08:04:18.382Z,49.49
2017-07-17T08:06:45.970Z,50.01
2017-07-17T08:09:13.450Z,49.87
2017-07-17T08:11:40.957Z,50.26
2017-07-17T08:14:08.506Z,49.72
2017-07-17T08:16:36.018Z,48.85
2017-07-17T08:19:03.549Z,49.01
2017-07-17T08:21:31.136Z,48.80
2017-07-17T08:23:58.645Z,48.24
2017-07-17T08:26:26.143Z,47.86
2017-07-17T08:28:53.622Z,48.31
2017-07-17T08:31:21.226Z,47.25
2017-07-17T08:33:48.845Z,46.81
2017-07-17T08:36:16.341Z,47.02
2017-07-17T08:38:43.801Z,47.35
2017-07-17T08:41:11.298Z,46.71
2017-07-17T08:43:38.833Z,46.62
2017-07-17T08:46:06.885Z,45.82
2017-07-17T08:48:34.438Z,45.37
2017-07-17T08:51:02.214Z,45.15
2017-07-17T08:54:48.203Z,47.80
2017-07-17T08:57:15.758Z,47.90
2017-07-17T08:59:43.250Z,47.23
2017-07-17T09:02:10.931Z,47.24
2017-07-17T09:04:38.455Z,46.52
2017-07-17T09:07:05.946Z,46.10
2017-07-17T09:09:33.454Z,46.90
2017-07-17T09:12:01.009Z,45.47
2017-07-17T09:14:28.661Z,46.04
2017-07-17T09:16:56.235Z,45.55
2017-07-17T09:19:23.791Z,45.69
2017-07-17T09:21:51.345Z,45.57
2017-07-17T09:24:18.829Z,45.51
2017-07-17T09:26:46.290Z,46.17
2017-07-17T09:29:13.773Z,46.92
2017-07-17T09:31:41.237Z,46.26
2017-07-17T09:34:08.773Z,46.08
2017-07-17T09:36:36.236Z,44.93
2017-07-17T09:39:03.900Z,45.12
2017-07-17T09:41:31.361Z,44.35
2017-07-17T09:46:57.054Z,45.21
2017-07-17T09:49:24.596Z,44.42
2017-07-17T09:51:52.158Z,44.40
2017-07-17T09:54:19.641Z,44.77
2017-07-17T09:56:47.124Z,46.09
2017-07-17T09:59:14.627Z,45.45
2017-07-17T10:01:42.117Z,46.15
2017-07-17T10:04:09.604Z,45.82
2017-07-17T10:06:37.103Z,45.59
2017-07-17T10:09:04.625Z,46.22
2017-07-17T10:11:32.135Z,46.45
2017-07-17T10:13:59.598Z,46.51
2017-07-17T10:16:27.082Z,47.21
2017-07-17T10:18:54.550Z,47.10
2017-07-17T10:59:56.975Z,47.12
2017-07-17T11:02:24.465Z,48.04
2017-07-17T11:04:51.950Z,46.93
2017-07-17T11:07:19.481Z,48.47
2017-07-17T11:09:46.967Z,47.30
2017-07-17T11:12:14.454Z,47.02
2017-07-17T11:14:41.925Z,47.09
2017-07-17T11:17:09.609Z,44.43
2017-07-17T11:19:37.165Z,45.53
2017-07-17T11:22:04.769Z,46.28
2017-07-17T11:24:32.328Z,46.05
2017-07-17T11:26:59.889Z,46.66
2017-07-17T11:29:27.405Z,46.46
2017-07-17T11:31:54.930Z,45.23
2017-07-17T11:34:22.421Z,44.75
2017-07-17T11:36:49.881Z,45.01
2017-07-17T11:39:17.366Z,45.35
2017-07-17T11:41:44.833Z,44.84
2017-07-17T11:44:12.317Z,43.74
2017-07-17T11:56:51.038Z,43.34
2017-07-17T11:59:18.540Z,43.84
2017-07-17T12:01:46.001Z,43.92
2017-07-17T12:04:13.493Z,43.59
2017-07-17T12:06:40.958Z,43.88
2017-07-17T12:09:08.441Z,44.84
2017-07-17T12:11:35.897Z,46.31
2017-07-17T12:14:03.457Z,46.33
2017-07-17T12:16:30.915Z,46.04
2017-07-17T12:18:58.441Z,46.35
2017-07-17T12:21:25.997Z,46.93
2017-07-17T12:23:53.558Z,47.77
2017-07-17T12:26:21.054Z,45.71
2017-07-17T12:28:48.514Z,45.92
2017-07-17T12:31:16.038Z,46.58
2017-07-17T12:33:43.497Z,46.45
2017-07-17T12:36:10.994Z,46.44
2017-07-17T12:38:38.454Z,45.01
2017-07-17T12:41:05.971Z,44.49
2017-07-17T12:43:33.516Z,45.19
2017-07-17T12:46:01.025Z,43.80
2017-07-17T12:48:28.485Z,43.79
2017-07-17T12:50:56.033Z,42.82
2017-07-17T12:53:23.492Z,42.95
2017-07-17T12:55:51.006Z,43.73
2017-07-17T12:58:18.562Z,42.02
2017-07-17T13:00:46.066Z,42.28
2017-07-17T13:03:13.553Z,41.05
2017-07-17T13:05:41.054Z,41.41
2017-07-17T13:08:08.598Z,41.46
2017-07-17T13:10:36.165Z,41.00
2017-07-17T13:13:03.654Z,40.42
2017-07-17T13:15:31.777Z,40.39
2017-07-17T13:17:59.386Z,42.59
2017-07-17T13:20:26.845Z,40.91
2017-07-17T13:22:54.408Z,40.87
2017-07-17T13:25:21.914Z,41.49
2017-07-17T13:27:49.396Z,42.73
2017-07-17T13:30:16.930Z,42.71
2017-07-17T13:32:44.493Z,42.64
2017-07-17T13:35:12.070Z,44.31
2017-07-17T13:37:39.652Z,44.91
2017-07-17T13:40:07.287Z,44.35
2017-07-17T13:42:34.841Z,44.33
2017-07-17T13:45:02.377Z,44.75
2017-07-17T13:47:29.940Z,44.68
2017-07-17T13:49:57.445Z,45.58
2017-07-17T13:52:24.957Z,46.53
2017-07-17T13:54:52.412Z,45.97
2017-07-17T13:57:19.977Z,45.86
2017-07-17T13:59:47.537Z,45.79
2017-07-17T14:02:15.090Z,46.39
2017-07-17T14:04:42.644Z,45.14
2017-07-17T14:07:13.150Z,45.11
2017-07-17T14:09:40.763Z,45.34
2017-07-17T14:12:08.298Z,46.57
2017-07-17T14:14:35.852Z,47.79
2017-07-17T14:17:03.413Z,46.90
2017-07-17T14:19:30.894Z,47.74
2017-07-17T14:21:58.545Z,47.77
2017-07-17T14:24:26.089Z,47.95
2017-07-17T14:26:53.645Z,48.82
2017-07-17T14:29:21.137Z,48.26
2017-07-17T14:31:48.597Z,48.52
2017-07-17T14:34:16.121Z,48.21
2017-07-17T14:36:43.682Z,48.25
2017-07-17T14:39:11.237Z,46.84
2017-07-17T14:41:38.792Z,47.51
2017-07-17T14:44:06.270Z,47.57
2017-07-17T14:46:33.745Z,48.15
2017-07-17T14:49:01.221Z,47.67
2017-07-17T14:51:28.744Z,47.33
2017-07-17T14:53:56.255Z,48.75
2017-07-17T14:56:23.742Z,48.98
2017-07-17T14:58:51.297Z,47.37
2017-07-17T15:01:18.869Z,47.26
2017-07-17T15:03:46.325Z,46.83
2017-07-17T15:06:13.892Z,47.96
2017-07-17T15:08:41.353Z,47.42
2017-07-17T15:11:08.832Z,48.08
2017-07-17T15:13:36.409Z,49.24
2017-07-17T15:16:03.886Z,49.25
2017-07-17T15:18:31.362Z,49.13
2017-07-17T15:20:58.912Z,49.46
2017-07-17T15:23:27.344Z,49.49
2017-07-17T15:25:54.893Z,49.37
2017-07-17T15:28:22.366Z,49.77
2017-07-17T15:30:49.869Z,50.16
2017-07-17T15:33:17.432Z,49.24
2017-07-17T15:35:44.993Z,48.96
2017-07-17T15:38:12.546Z,49.67
2017-07-17T15:40:40.118Z,49.82
2017-07-17T15:43:07.662Z,49.50
2017-07-17T15:45:35.163Z,49.39
2017-07-17T15:48:02.686Z,48.54
2017-07-17T15:50:30.169Z,49.67
2017-07-17T15:52:57.702Z,49.58
2017-07-17T15:55:25.249Z,49.38
2017-07-17T15:57:52.709Z,48.63
2017-07-17T16:00:20.270Z,48.83
2017-07-17T16:02:47.758Z,49.64
2017-07-17T16:05:15.326Z,49.33
2017-07-17T16:07:42.837Z,49.77
2017-07-17T16:10:10.412Z,48.95
2017-07-17T16:12:37.962Z,49.62
2017-07-17T16:15:05.600Z,49.08
2017-07-17T16:17:33.094Z,49.39
2017-07-17T16:20:00.565Z,49.25
2017-07-17T16:22:28.046Z,49.43
2017-07-17T16:24:55.556Z,48.47
2017-07-17T16:27:23.028Z,48.68
2017-07-17T16:29:50.608Z,49.09
2017-07-17T16:32:18.115Z,50.08
2017-07-17T16:34:45.573Z,49.26
2017-07-17T16:37:13.079Z,48.75
2017-07-17T16:39:40.592Z,48.17
2017-07-17T16:42:08.078Z,48.41
2017-07-17T16:44:35.551Z,48.43
2017-07-17T16:47:03.037Z,49.28
2017-07-17T16:49:30.529Z,48.50
2017-07-17T16:51:58.008Z,48.84
2017-07-17T16:54:25.494Z,49.47
2017-07-17T16:56:52.989Z,48.42
2017-07-17T16:59:20.458Z,48.74
2017-07-17T17:01:48.001Z,49.31
2017-07-17T17:04:15.510Z,50.12
2017-07-17T17:06:42.982Z,49.61
2017-07-17T17:09:10.487Z,49.70
2017-07-17T17:11:37.945Z,49.35
2017-07-17T17:14:05.494Z,49.96
2017-07-17T17:16:32.958Z,50.29
2017-07-17T17:19:00.502Z,49.79
2017-07-17T17:21:27.972Z,50.02
2017-07-17T17:23:55.461Z,49.40
2017-07-17T17:26:22.926Z,49.61
2017-07-17T17:28:50.405Z,49.80
2017-07-17T17:31:17.939Z,48.85
2017-07-17T17:33:45.441Z,49.44
2017-07-17T17:36:12.919Z,49.97
2017-07-17T17:38:40.528Z,50.26
2017-07-17T17:41:07.986Z,50.10
2017-07-17T17:43:35.460Z,49.71
2017-07-17T17:46:02.942Z,50.54
2017-07-17T17:48:30.465Z,51.07
2017-07-17T17:50:57.938Z,49.85
2017-07-17T17:53:25.420Z,49.62
2017-07-17T17:55:52.953Z,50.30
2017-07-17T17:58:20.449Z,50.92
2017-07-17T18:00:47.912Z,49.38
2017-07-17T18:03:15.833Z,49.84
2017-07-17T18:05:43.357Z,50.63
2017-07-17T18:08:10.837Z,52.71
2017-07-17T18:10:38.339Z,54.26
2017-07-17T18:13:05.885Z,53.72
2017-07-17T18:15:33.384Z,53.76
2017-07-17T18:18:00.850Z,52.77
2017-07-17T18:20:28.363Z,53.37
2017-07-17T18:22:55.910Z,53.44
2017-07-17T18:25:23.398Z,54.05
2017-07-17T18:27:50.925Z,55.60
2017-07-17T18:30:18.486Z,56.71
2017-07-17T18:32:45.949Z,56.99
2017-07-17T18:35:13.429Z,56.75
2017-07-17T18:37:40.961Z,56.47
2017-07-17T18:40:08.443Z,56.95
2017-07-17T18:42:35.905Z,56.23
2017-07-17T18:45:03.473Z,57.32
2017-07-17T18:47:30.989Z,57.71
2017-07-17T18:49:58.591Z,59.47
2017-07-17T18:52:26.258Z,59.59
2017-07-17T18:54:53.771Z,60.77
2017-07-17T18:57:21.333Z,61.35
2017-07-17T18:59:48.881Z,60.86
2017-07-17T19:02:16.441Z,59.43
2017-07-17T19:04:43.997Z,59.54
2017-07-17T19:07:11.493Z,59.09
2017-07-17T19:09:39.020Z,58.74
2017-07-17T19:12:06.502Z,58.34
2017-07-17T19:14:33.969Z,59.63
2017-07-17T19:17:01.489Z,61.18
2017-07-17T19:19:29.091Z,62.99
2017-07-17T19:21:56.649Z,62.58
2017-07-17T19:24:24.119Z,62.97
2017-07-17T19:26:51.596Z,63.65
2017-07-17T19:29:19.082Z,64.57
2017-07-17T19:31:46.562Z,64.13
2017-07-17T19:34:14.099Z,65.35
2017-07-17T19:36:41.649Z,64.76
2017-07-17T19:39:09.209Z,64.78
2017-07-17T19:41:36.689Z,66.33
2017-07-17T19:44:04.150Z,65.98
2017-07-17T19:46:31.686Z,66.52
2017-07-17T19:48:59.165Z,66.39
2017-07-17T19:51:26.702Z,66.03
2017-07-17T19:53:54.253Z,65.91
2017-07-17T19:56:21.726Z,65.74
2017-07-17T19:58:49.185Z,65.05
2017-07-17T20:01:16.729Z,65.07
2017-07-17T20:03:44.205Z,65.68
2017-07-17T20:06:11.670Z,65.31
2017-07-17T20:08:39.197Z,65.97
2017-07-17T20:11:06.658Z,66.19
2017-07-17T20:13:34.262Z,66.26
2017-07-17T20:16:01.785Z,65.71
2017-07-17T20:18:29.736Z,66.33
2017-07-17T20:20:57.300Z,66.99
2017-07-17T20:23:24.780Z,66.85
2017-07-17T20:25:52.318Z,66.76
2017-07-17T20:28:19.802Z,67.47
2017-07-17T20:30:47.285Z,67.15
2017-07-17T20:33:14.789Z,66.81
2017-07-17T20:35:42.300Z,66.72
2017-07-17T20:38:09.798Z,67.07
2017-07-17T20:40:37.361Z,66.08
2017-07-17T20:43:04.941Z,67.24
2017-07-17T20:45:32.401Z,66.69
2017-07-17T20:47:59.939Z,66.56
2017-07-17T20:50:27.486Z,66.29
2017-07-17T20:52:55.157Z,66.17
2017-07-17T20:55:22.622Z,65.80
2017-07-17T20:57:50.176Z,65.44
2017-07-17T21:00:17.726Z,66.56
2017-07-17T21:02:45.290Z,67.38
2017-07-17T21:05:12.849Z,66.65
2017-07-17T21:07:40.346Z,65.81
2017-07-17T21:10:07.833Z,69.69
2017-07-17T21:12:35.304Z,70.56
2017-07-17T21:15:02.809Z,69.73
2017-07-17T21:17:30.376Z,70.47
2017-07-17T21:19:57.861Z,69.67
2017-07-17T21:22:25.349Z,68.49
2017-07-17T21:24:52.909Z,67.27
2017-07-17T21:27:20.367Z,68.13
2017-07-17T21:29:47.849Z,68.83
2017-07-17T21:32:15.316Z,68.48
2017-07-17T21:34:42.834Z,66.54
2017-07-17T21:37:10.293Z,66.51
2017-07-17T21:39:37.846Z,68.22
2017-07-17T21:42:05.329Z,68.05
2017-07-17T21:44:33.585Z,67.56
2017-07-17T21:47:01.196Z,68.33
2017-07-17T21:49:28.697Z,67.70
2017-07-17T21:51:56.250Z,66.83
2017-07-17T21:54:23.730Z,66.98
2017-07-17T21:56:51.194Z,68.27
2017-07-17T21:59:18.684Z,67.53
2017-07-17T22:01:46.181Z,66.45
2017-07-17T22:04:13.686Z,65.90
2017-07-17T22:06:41.174Z,66.73
2017-07-17T22:09:08.657Z,66.59
2017-07-17T22:11:36.260Z,68.15
2017-07-17T22:14:03.731Z,67.72
2017-07-17T22:16:31.281Z,67.73
2017-07-17T22:18:58.740Z,69.07
2017-07-17T22:21:26.217Z,69.41
2017-07-17T22:23:53.729Z,69.90
2017-07-17T22:26:21.218Z,68.15
2017-07-17T22:28:48.722Z,68.50
2017-07-17T22:31:16.273Z,69.57
2017-07-17T22:33:43.732Z,70.11
2017-07-17T22:36:11.336Z,68.80
2017-07-17T22:38:38.802Z,69.11
2017-07-17T22:41:06.305Z,69.77
2017-07-17T22:43:33.861Z,70.14
2017-07-17T22:46:01.372Z,68.72
2017-07-17T22:48:28.836Z,68.67
2017-07-17T22:50:56.329Z,69.43
2017-07-17T22:53:23.825Z,69.66
2017-07-17T22:55:51.324Z,68.15
2017-07-17T22:58:18.949Z,69.09
2017-07-17T23:00:46.433Z,69.34
2017-07-17T23:03:13.922Z,69.43
2017-07-17T23:05:41.425Z,71.35
2017-07-17T23:08:08.915Z,72.41
2017-07-17T23:10:36.374Z,72.98
2017-07-17T23:13:03.865Z,73.35
2017-07-17T23:15:31.412Z,73.03
2017-07-17T23:17:58.997Z,73.84
2017-07-17T23:20:26.470Z,74.06
2017-07-17T23:22:53.957Z,74.62
2017-07-17T23:25:21.444Z,74.60
2017-07-17T23:27:48.999Z,75.70
2017-07-17T23:30:16.567Z,75.65
2017-07-17T23:32:44.046Z,76.04
2017-07-17T23:35:11.510Z,75.91
2017-07-17T23:37:39.049Z,74.82
2017-07-17T23:40:06.588Z,75.90
2017-07-17T23:42:34.083Z,76.17
2017-07-17T23:45:01.574Z,76.11
2017-07-17T23:47:29.185Z,76.00
2017-07-17T23:49:56.768Z,75.35
2017-07-17T23:52:24.250Z,74.86
2017-07-17T23:54:51.709Z,74.94
2017-07-17T23:57:19.188Z,75.96
2017-07-17T23:59:46.695Z,77.01
